createdAt,value
2023-04-29T00:01:32.562Z,100931.75
2023-04-29T00:04:00.777Z,100918.56
2023-04-29T00:06:29.415Z,100932.22
2023-04-29T00:08:57.467Z,100924.75
2023-04-29T00:11:25.502Z,100928.25
2023-04-29T00:13:54.817Z,100923.09
2023-04-29T00:16:23.065Z,100928.41
2023-04-29T00:18:51.145Z,100925.84
2023-04-29T00:21:19.113Z,100921.50
2023-04-29T00:23:47.030Z,100915.34
2023-04-29T00:26:15.229Z,100910.69
2023-04-29T00:28:43.145Z,100922.69
2023-04-29T00:31:13.229Z,100914.03
2023-04-29T00:33:41.205Z,100917.13
2023-04-29T00:36:09.559Z,100920.00
2023-04-29T00:38:37.801Z,100912.81
2023-04-29T00:41:05.980Z,100908.31
2023-04-29T00:43:33.890Z,100910.09
2023-04-29T00:46:01.949Z,100909.31
2023-04-29T00:48:31.310Z,100910.06
2023-04-29T00:50:59.235Z,100914.03
2023-04-29T00:53:27.306Z,100910.25
2023-04-29T00:55:56.330Z,100906.94
2023-04-29T00:58:30.324Z,100902.31
2023-04-29T01:00:58.582Z,100904.03
2023-04-29T01:03:26.650Z,100900.88
2023-04-29T01:06:06.338Z,100900.88
2023-04-29T01:08:43.374Z,100896.00
2023-04-29T01:11:12.883Z,100892.34
2023-04-29T01:13:47.307Z,100897.88
2023-04-29T01:16:22.735Z,100892.63
2023-04-29T01:18:55.784Z,100888.81
2023-04-29T01:21:26.465Z,100896.84
2023-04-29T01:23:57.262Z,100893.38
2023-04-29T01:26:25.904Z,100891.72
2023-04-29T01:29:00.806Z,100896.19
2023-04-29T01:31:33.715Z,100891.16
2023-04-29T01:34:13.143Z,100884.69
2023-04-29T01:36:52.550Z,100887.31
2023-04-29T01:39:32.325Z,100894.22
2023-04-29T01:42:12.618Z,100892.69
2023-04-29T01:44:43.779Z,100889.56
2023-04-29T01:47:15.361Z,100888.00
2023-04-29T01:49:43.314Z,100891.38
2023-04-29T01:52:11.257Z,100884.22
2023-04-29T01:54:40.671Z,100889.25
2023-04-29T01:57:08.587Z,100882.53
2023-04-29T01:59:36.724Z,100893.19
2023-04-29T02:02:04.670Z,100893.31
2023-04-29T02:04:34.534Z,100889.47
2023-04-29T02:07:04.089Z,100886.66
2023-04-29T02:09:32.056Z,100885.78
2023-04-29T02:12:01.344Z,100882.03
2023-04-29T02:14:29.267Z,100886.44
2023-04-29T02:16:57.220Z,100883.25
2023-04-29T02:19:25.142Z,100888.38
2023-04-29T02:21:53.087Z,100887.09
2023-04-29T02:24:21.190Z,100878.19
2023-04-29T02:26:49.145Z,100885.53
2023-04-29T02:29:18.596Z,100880.28
2023-04-29T02:31:46.639Z,100880.16
2023-04-29T02:34:14.641Z,100880.19
2023-04-29T02:36:42.588Z,100876.94
2023-04-29T02:39:10.512Z,100872.03
2023-04-29T02:41:38.524Z,100874.22
2023-04-29T02:44:06.442Z,100876.25
2023-04-29T02:46:36.489Z,100874.75
2023-04-29T02:49:05.177Z,100878.56
2023-04-29T02:51:33.545Z,100880.16
2023-04-29T02:54:01.453Z,100875.59
2023-04-29T02:56:29.483Z,100878.44
2023-04-29T02:58:57.518Z,100874.53
2023-04-29T03:01:25.586Z,100871.06
2023-04-29T03:03:55.269Z,100873.56
2023-04-29T03:06:23.518Z,100862.81
2023-04-29T03:08:52.660Z,100875.09
2023-04-29T03:11:21.283Z,100873.84
2023-04-29T03:13:49.185Z,100873.50
2023-04-29T03:16:17.263Z,100875.53
2023-04-29T03:18:45.466Z,100883.00
2023-04-29T03:21:15.221Z,100878.50
2023-04-29T03:23:43.166Z,100875.75
2023-04-29T03:26:11.625Z,100882.19
2023-04-29T03:28:39.619Z,100887.25
2023-04-29T03:31:07.589Z,100890.31
2023-04-29T03:33:35.570Z,100891.25
2023-04-29T03:36:04.369Z,100887.34
2023-04-29T03:38:33.684Z,100892.63
2023-04-29T03:41:01.909Z,100894.75
2023-04-29T03:43:29.940Z,100892.22
2023-04-29T03:45:57.862Z,100893.69
2023-04-29T03:48:25.814Z,100898.63
2023-04-29T03:50:53.845Z,100902.41
2023-04-29T03:53:22.016Z,100900.72
2023-04-29T03:55:51.451Z,100897.88
2023-04-29T03:58:19.460Z,100902.88
2023-04-29T04:00:47.446Z,100902.50
2023-04-29T04:03:15.610Z,100903.66
2023-04-29T04:05:43.654Z,100907.97
2023-04-29T04:08:11.812Z,100908.06
2023-04-29T04:10:39.765Z,100916.75
2023-04-29T04:13:09.078Z,100912.66
2023-04-29T04:15:37.133Z,100917.47
2023-04-29T04:18:05.454Z,100918.00
2023-04-29T04:20:33.463Z,100927.06
2023-04-29T04:23:01.384Z,100914.47
2023-04-29T04:25:30.302Z,100915.28
2023-04-29T04:27:58.231Z,100920.06
2023-04-29T04:30:27.541Z,100914.53
2023-04-29T04:32:55.492Z,100916.22
2023-04-29T04:35:23.427Z,100912.91
2023-04-29T04:37:51.563Z,100912.47
2023-04-29T04:40:19.546Z,100892.69
2023-04-29T04:42:47.455Z,100906.66
2023-04-29T04:45:15.410Z,100909.34
2023-04-29T04:47:44.733Z,100909.88
2023-04-29T04:50:12.651Z,100915.59
2023-04-29T04:52:40.591Z,100914.28
2023-04-29T04:55:09.695Z,100917.44
2023-04-29T04:57:37.681Z,100922.94
2023-04-29T05:00:07.074Z,100929.94
2023-04-29T05:02:35.117Z,100928.81
2023-04-29T05:05:04.746Z,100929.53
2023-04-29T05:07:33.140Z,100927.41
2023-04-29T05:10:01.072Z,100921.31
2023-04-29T05:12:30.942Z,100918.06
2023-04-29T05:14:59.489Z,100918.81
2023-04-29T05:17:27.470Z,100925.13
2023-04-29T05:19:55.481Z,100919.88
2023-04-29T05:22:25.023Z,100928.13
2023-04-29T05:24:54.335Z,100918.69
2023-04-29T05:27:22.258Z,100922.41
2023-04-29T05:29:50.280Z,100918.19
2023-04-29T05:32:18.335Z,100922.34
2023-04-29T05:34:46.602Z,100922.09
2023-04-29T05:37:14.572Z,100924.69
2023-04-29T05:39:43.958Z,100917.31
2023-04-29T05:42:11.876Z,100925.75
2023-04-29T05:44:41.109Z,100922.75
2023-04-29T05:47:09.027Z,100927.44
2023-04-29T05:49:36.944Z,100919.66
2023-04-29T05:52:06.662Z,100922.47
2023-04-29T05:54:34.918Z,100913.78
2023-04-29T05:57:04.478Z,100915.44
2023-04-29T05:59:32.854Z,100916.13
2023-04-29T06:02:01.496Z,100914.69
2023-04-29T06:04:30.113Z,100908.88
2023-04-29T06:06:58.759Z,100911.56
2023-04-29T06:09:28.183Z,100910.47
2023-04-29T06:11:56.489Z,100907.44
2023-04-29T06:14:25.995Z,100915.44
2023-04-29T06:16:54.066Z,100905.28
2023-04-29T06:19:21.998Z,100893.38
2023-04-29T06:21:49.905Z,100910.94
2023-04-29T06:24:17.849Z,100910.03
2023-04-29T06:26:45.848Z,100907.59
2023-04-29T06:29:13.786Z,100908.72
2023-04-29T06:31:43.221Z,100912.59
2023-04-29T06:34:11.471Z,100913.19
2023-04-29T06:36:39.480Z,100906.94
2023-04-29T06:39:07.463Z,100917.22
2023-04-29T06:41:36.881Z,100887.66
2023-04-29T06:44:04.919Z,100913.63
2023-04-29T06:46:33.020Z,100904.63
2023-04-29T06:49:02.474Z,100900.13
2023-04-29T06:51:32.189Z,100899.34
2023-04-29T06:54:00.187Z,100885.72
2023-04-29T06:56:30.286Z,100890.31
2023-04-29T06:58:58.394Z,100885.13
2023-04-29T07:01:26.357Z,100890.44
2023-04-29T07:03:54.498Z,100884.25
2023-04-29T07:06:24.033Z,100891.28
2023-04-29T07:08:53.711Z,100889.59
2023-04-29T07:11:24.774Z,100898.97
2023-04-29T07:13:54.437Z,100897.13
2023-04-29T07:16:26.583Z,100893.88
2023-04-29T07:18:54.991Z,100892.94
2023-04-29T07:21:24.362Z,100889.06
2023-04-29T07:23:52.336Z,100893.47
2023-04-29T07:26:20.257Z,100891.59
2023-04-29T07:28:49.751Z,100869.09
2023-04-29T07:31:17.921Z,100872.41
2023-04-29T07:33:47.438Z,100882.16
2023-04-29T07:36:15.464Z,100890.38
2023-04-29T07:38:44.765Z,100884.63
2023-04-29T07:41:12.699Z,100886.03
2023-04-29T07:43:42.363Z,100880.03
2023-04-29T07:46:10.699Z,100883.69
2023-04-29T07:48:40.189Z,100874.59
2023-04-29T07:51:08.956Z,100876.38
2023-04-29T07:53:36.898Z,100871.69
2023-04-29T07:56:08.697Z,100867.00
2023-04-29T07:58:36.959Z,100876.06
2023-04-29T08:01:08.730Z,100864.66
2023-04-29T08:03:39.856Z,100864.63
2023-04-29T08:06:09.158Z,100837.00
2023-04-29T08:08:37.581Z,100849.50
2023-04-29T08:11:07.539Z,100857.38
2023-04-29T08:13:35.466Z,100849.38
2023-04-29T08:16:03.441Z,100852.06
2023-04-29T08:18:31.390Z,100845.41
2023-04-29T08:20:59.333Z,100839.31
2023-04-29T08:23:27.528Z,100842.63
2023-04-29T08:25:56.080Z,100810.94
2023-04-29T08:28:25.528Z,100829.03
2023-04-29T08:30:53.499Z,100824.19
2023-04-29T08:33:21.408Z,100831.50
2023-04-29T08:35:49.669Z,100820.53
2023-04-29T08:38:17.597Z,100821.97
2023-04-29T08:40:47.256Z,100822.88
2023-04-29T08:43:15.973Z,100829.09
2023-04-29T08:45:45.478Z,100820.97
2023-04-29T08:48:14.666Z,100811.13
2023-04-29T08:50:43.625Z,100817.13
2023-04-29T08:53:13.953Z,100816.00
2023-04-29T08:55:43.906Z,100811.31
2023-04-29T08:58:13.435Z,100797.22
2023-04-29T09:00:43.265Z,100807.19
2023-04-29T09:03:21.116Z,100800.97
2023-04-29T09:05:51.487Z,100798.13
2023-04-29T09:08:21.232Z,100806.56
2023-04-29T09:10:49.517Z,100811.03
2023-04-29T09:13:35.100Z,100799.94
2023-04-29T09:16:03.062Z,100810.53
2023-04-29T09:18:46.105Z,100799.25
2023-04-29T09:21:15.764Z,100792.25
2023-04-29T09:23:43.808Z,100797.31
2023-04-29T09:26:11.750Z,100788.69
2023-04-29T09:28:41.167Z,100774.00
2023-04-29T09:31:09.154Z,100780.00
2023-04-29T09:33:54.596Z,100769.59
2023-04-29T09:36:39.622Z,100780.22
2023-04-29T09:39:11.886Z,100777.16
2023-04-29T09:41:41.811Z,100769.69
2023-04-29T09:44:11.314Z,100778.91
2023-04-29T09:46:39.360Z,100773.53
2023-04-29T09:49:25.069Z,100765.38
2023-04-29T09:51:58.042Z,100770.28
2023-04-29T09:54:28.555Z,100759.34
2023-04-29T09:56:57.668Z,100755.63
2023-04-29T09:59:26.477Z,100747.19
2023-04-29T10:01:55.543Z,100737.72
2023-04-29T10:04:26.384Z,100745.22
2023-04-29T10:06:55.455Z,100741.94
2023-04-29T10:09:24.895Z,100740.50
2023-04-29T10:11:54.678Z,100743.66
2023-04-29T10:14:24.892Z,100743.41
2023-04-29T10:17:04.835Z,100742.00
2023-04-29T10:19:39.928Z,100743.28
2023-04-29T10:22:10.515Z,100726.22
2023-04-29T10:24:40.161Z,100747.16
2023-04-29T10:27:09.076Z,100738.84
2023-04-29T10:29:38.817Z,100733.09
2023-04-29T10:32:10.812Z,100738.31
2023-04-29T10:34:40.770Z,100717.84
2023-04-29T10:37:11.072Z,100723.63
2023-04-29T10:39:45.307Z,100721.63
2023-04-29T10:42:21.414Z,100722.44
2023-04-29T10:45:23.349Z,100722.44
2023-04-29T10:48:11.914Z,100719.44
2023-04-29T10:51:05.097Z,100720.19
2023-04-29T10:53:33.030Z,100719.03
2023-04-29T10:56:06.647Z,100724.72
2023-04-29T10:58:43.635Z,100713.78
2023-04-29T11:01:13.091Z,100722.53
2023-04-29T11:03:55.540Z,100716.88
2023-04-29T11:06:27.464Z,100716.34
2023-04-29T11:09:03.428Z,100713.94
2023-04-29T11:11:50.193Z,100701.72
2023-04-29T11:14:24.947Z,100701.72
2023-04-29T11:16:54.664Z,100706.47
2023-04-29T11:19:25.722Z,100704.34
2023-04-29T11:22:13.023Z,100703.16
2023-04-29T11:24:52.124Z,100700.66
2023-04-29T11:27:23.009Z,100701.09
2023-04-29T11:29:51.676Z,100696.16
2023-04-29T11:32:22.715Z,100692.56
2023-04-29T11:34:50.891Z,100685.91
2023-04-29T11:37:24.428Z,100689.31
2023-04-29T11:39:52.636Z,100682.94
2023-04-29T11:42:23.867Z,100683.44
2023-04-29T11:44:57.032Z,100682.56
2023-04-29T11:47:28.712Z,100676.50
2023-04-29T11:50:03.845Z,100680.38
2023-04-29T11:52:34.175Z,100658.84
2023-04-29T11:55:02.186Z,100678.16
2023-04-29T11:57:30.230Z,100674.06
2023-04-29T11:59:58.897Z,100677.38
2023-04-29T12:02:32.304Z,100661.84
2023-04-29T12:05:01.539Z,100660.13
2023-04-29T12:07:30.226Z,100647.94
2023-04-29T12:10:00.454Z,100650.72
2023-04-29T12:12:29.288Z,100655.22
2023-04-29T12:14:57.441Z,100654.22
2023-04-29T12:17:25.809Z,100645.78
2023-04-29T12:19:53.856Z,100650.16
2023-04-29T12:22:21.863Z,100641.41
2023-04-29T12:24:50.958Z,100636.88
2023-04-29T12:27:20.265Z,100633.91
2023-04-29T12:29:48.273Z,100637.78
2023-04-29T12:32:18.836Z,100636.03
2023-04-29T12:34:47.469Z,100636.69
2023-04-29T12:37:16.665Z,100632.63
2023-04-29T12:39:44.830Z,100622.16
2023-04-29T12:42:17.353Z,100624.88
2023-04-29T12:44:48.325Z,100621.94
2023-04-29T12:47:17.606Z,100615.44
2023-04-29T12:49:46.701Z,100582.81
2023-04-29T12:52:14.759Z,100602.94
2023-04-29T12:54:43.983Z,100600.38
2023-04-29T12:57:12.612Z,100610.88
2023-04-29T12:59:41.346Z,100609.59
2023-04-29T13:02:11.094Z,100603.41
2023-04-29T13:04:40.079Z,100603.00
2023-04-29T13:07:08.308Z,100598.28
2023-04-29T13:09:38.189Z,100585.91
2023-04-29T13:12:09.616Z,100596.75
2023-04-29T13:14:37.714Z,100589.91
2023-04-29T13:17:06.479Z,100584.84
2023-04-29T13:19:50.199Z,100583.38
2023-04-29T13:22:19.516Z,100581.59
2023-04-29T13:24:47.605Z,100576.38
2023-04-29T13:27:15.643Z,100576.94
2023-04-29T13:29:43.542Z,100575.69
2023-04-29T13:32:11.654Z,100575.47
2023-04-29T13:34:43.408Z,100580.13
2023-04-29T13:37:11.534Z,100570.00
2023-04-29T13:39:39.728Z,100563.34
2023-04-29T13:42:08.986Z,100571.31
2023-04-29T13:44:49.847Z,100566.72
2023-04-29T13:47:25.718Z,100570.47
2023-04-29T13:53:18.556Z,100558.84
2023-04-29T13:56:11.463Z,100554.53
2023-04-29T14:01:04.604Z,100560.22
2023-04-29T14:03:21.486Z,100560.63
2023-04-29T14:05:51.456Z,100549.44
2023-04-29T14:08:19.475Z,100545.25
2023-04-29T14:10:48.012Z,100544.03
2023-04-29T14:13:15.992Z,100549.28
2023-04-29T14:15:43.951Z,100541.09
2023-04-29T14:18:12.196Z,100541.44
2023-04-29T14:20:40.140Z,100535.06
2023-04-29T14:23:09.425Z,100541.41
2023-04-29T14:25:37.358Z,100542.88
2023-04-29T14:28:05.314Z,100537.91
2023-04-29T14:30:33.351Z,100531.94
2023-04-29T14:33:01.337Z,100540.25
2023-04-29T14:35:29.497Z,100533.97
2023-04-29T14:37:57.392Z,100534.44
2023-04-29T14:40:26.844Z,100531.28
2023-04-29T14:42:54.794Z,100532.25
2023-04-29T14:45:22.725Z,100533.91
2023-04-29T14:47:50.654Z,100528.97
2023-04-29T14:50:18.894Z,100528.84
2023-04-29T14:52:46.873Z,100511.41
2023-04-29T14:55:15.186Z,100528.56
2023-04-29T14:57:44.503Z,100511.28
2023-04-29T15:00:13.565Z,100524.97
2023-04-29T15:02:41.515Z,100525.78
2023-04-29T15:05:09.942Z,100523.44
2023-04-29T15:07:37.866Z,100523.59
2023-04-29T15:10:09.423Z,100521.09
2023-04-29T15:12:37.351Z,100513.59
2023-04-29T15:15:08.158Z,100507.25
2023-04-29T15:17:36.174Z,100513.47
2023-04-29T15:20:04.273Z,100517.19
2023-04-29T15:22:32.199Z,100512.19
2023-04-29T15:25:01.045Z,100518.78
2023-04-29T15:27:29.366Z,100511.06
2023-04-29T15:29:57.889Z,100513.81
2023-04-29T15:32:31.631Z,100517.00
2023-04-29T15:34:59.751Z,100514.59
2023-04-29T15:37:27.853Z,100519.13
2023-04-29T15:39:56.477Z,100506.00
2023-04-29T15:42:24.593Z,100509.81
2023-04-29T15:44:52.574Z,100510.03
2023-04-29T15:47:21.834Z,100496.56
2023-04-29T15:49:52.521Z,100505.72
2023-04-29T15:52:20.780Z,100512.38
2023-04-29T15:54:48.675Z,100504.84
2023-04-29T15:57:16.579Z,100494.75
2023-04-29T15:59:44.702Z,100505.53
2023-04-29T16:02:12.600Z,100509.25
2023-04-29T16:04:40.514Z,100506.13
2023-04-29T16:07:09.926Z,100510.44
2023-04-29T16:09:37.888Z,100512.31
2023-04-29T16:12:06.066Z,100503.72
2023-04-29T16:14:33.982Z,100500.19
2023-04-29T16:17:02.163Z,100494.31
2023-04-29T16:19:30.209Z,100503.25
2023-04-29T16:21:58.095Z,100502.75
2023-04-29T16:24:27.747Z,100499.06
2023-04-29T16:26:56.744Z,100505.28
2023-04-29T16:29:24.633Z,100499.22
2023-04-29T16:31:52.673Z,100506.59
2023-04-29T16:34:20.917Z,100501.66
2023-04-29T16:36:48.851Z,100505.94
2023-04-29T16:39:16.989Z,100504.00
2023-04-29T16:41:46.297Z,100505.63
2023-04-29T16:44:14.587Z,100502.88
2023-04-29T16:46:42.634Z,100500.03
2023-04-29T16:49:10.756Z,100508.56
2023-04-29T16:51:38.708Z,100507.63
2023-04-29T16:54:08.080Z,100501.56
2023-04-29T16:56:36.103Z,100504.53
2023-04-29T16:59:05.385Z,100508.22
2023-04-29T17:01:33.390Z,100502.84
2023-04-29T17:04:01.668Z,100505.97
2023-04-29T17:06:30.083Z,100507.75
2023-04-29T17:08:58.162Z,100503.84
2023-04-29T17:11:26.212Z,100498.34
2023-04-29T17:13:54.132Z,100507.41
2023-04-29T17:16:23.472Z,100513.56
2023-04-29T17:18:51.432Z,100513.19
2023-04-29T17:21:19.327Z,100510.53
2023-04-29T17:23:47.204Z,100518.25
2023-04-29T17:26:15.112Z,100524.28
2023-04-29T17:28:43.053Z,100518.91
2023-04-29T17:31:11.004Z,100512.28
2023-04-29T17:33:43.646Z,100519.66
2023-04-29T17:36:11.591Z,100507.72
2023-04-29T17:38:39.552Z,100518.72
2023-04-29T17:41:07.460Z,100508.81
2023-04-29T17:43:35.720Z,100507.25
2023-04-29T17:46:03.805Z,100515.84
2023-04-29T17:48:32.467Z,100519.84
2023-04-29T17:51:01.792Z,100519.84
2023-04-29T17:53:29.699Z,100517.78
2023-04-29T17:55:57.595Z,100528.94
2023-04-29T17:58:27.470Z,100531.81
2023-04-29T18:00:56.099Z,100536.78
2023-04-29T18:03:27.325Z,100522.81
2023-04-29T18:05:55.842Z,100529.56
2023-04-29T18:08:25.266Z,100530.84
2023-04-29T18:10:53.234Z,100534.75
2023-04-29T18:13:21.154Z,100535.81
2023-04-29T18:15:49.049Z,100539.06
2023-04-29T18:18:17.141Z,100532.91
2023-04-29T18:20:45.470Z,100545.41
2023-04-29T18:23:14.122Z,100544.28
2023-04-29T18:25:43.703Z,100547.72
2023-04-29T18:28:24.031Z,100551.59
2023-04-29T18:30:53.686Z,100551.88
2023-04-29T18:33:23.286Z,100556.91
2023-04-29T18:35:51.696Z,100551.66
2023-04-29T18:38:19.572Z,100554.44
2023-04-29T18:40:49.553Z,100564.06
2023-04-29T18:43:18.366Z,100563.22
2023-04-29T18:45:46.688Z,100550.19
2023-04-29T18:48:15.128Z,100558.34
2023-04-29T18:50:43.349Z,100557.69
2023-04-29T18:53:11.877Z,100559.16
2023-04-29T18:55:39.790Z,100555.94
2023-04-29T18:58:09.394Z,100556.69
2023-04-29T19:00:37.399Z,100563.66
2023-04-29T19:03:06.302Z,100557.28
2023-04-29T19:05:34.804Z,100566.13
2023-04-29T19:08:02.754Z,100562.75
2023-04-29T19:10:30.761Z,100558.38
2023-04-29T19:12:58.676Z,100550.69
2023-04-29T19:15:28.505Z,100554.34
2023-04-29T19:17:56.666Z,100554.25
2023-04-29T19:20:24.618Z,100561.44
2023-04-29T19:22:52.522Z,100559.69
2023-04-29T19:25:21.193Z,100559.97
2023-04-29T19:27:51.130Z,100558.03
2023-04-29T19:30:19.174Z,100557.44
2023-04-29T19:32:48.900Z,100562.06
2023-04-29T19:35:16.845Z,100561.13
2023-04-29T19:37:44.734Z,100567.34
2023-04-29T19:40:13.151Z,100553.19
2023-04-29T19:42:41.289Z,100552.81
2023-04-29T19:45:10.211Z,100549.19
2023-04-29T19:47:38.145Z,100551.06
2023-04-29T19:50:08.062Z,100548.56
2023-04-29T19:52:35.941Z,100547.81
2023-04-29T19:55:04.966Z,100557.56
2023-04-29T19:57:33.285Z,100551.72
2023-04-29T20:00:01.500Z,100550.97
2023-04-29T20:02:29.541Z,100552.09
2023-04-29T20:04:57.503Z,100552.19
2023-04-29T20:07:26.793Z,100547.06
2023-04-29T20:09:54.979Z,100548.13
2023-04-29T20:12:23.154Z,100548.00
2023-04-29T20:14:51.040Z,100545.59
2023-04-29T20:17:18.993Z,100549.97
2023-04-29T20:19:46.905Z,100550.91
2023-04-29T20:22:14.841Z,100546.81
2023-04-29T20:24:44.782Z,100548.56
2023-04-29T20:27:12.959Z,100539.31
2023-04-29T20:29:41.161Z,100540.22
2023-04-29T20:32:09.187Z,100539.47
2023-04-29T20:34:37.937Z,100537.97
2023-04-29T20:37:07.009Z,100540.09
2023-04-29T20:39:35.298Z,100534.59
2023-04-29T20:42:05.391Z,100538.84
2023-04-29T20:44:34.178Z,100531.41
2023-04-29T20:47:02.075Z,100526.03
2023-04-29T20:49:30.051Z,100523.34
2023-04-29T20:51:58.341Z,100526.47
2023-04-29T20:54:26.507Z,100526.66
2023-04-29T20:56:54.404Z,100536.84
2023-04-29T20:59:23.884Z,100521.00
2023-04-29T21:01:51.940Z,100524.53
2023-04-29T21:04:21.104Z,100528.81
2023-04-29T21:06:50.736Z,100513.56
2023-04-29T21:09:19.312Z,100522.69
2023-04-29T21:11:47.347Z,100523.00
2023-04-29T21:14:15.583Z,100523.41
2023-04-29T21:16:44.935Z,100526.34
2023-04-29T21:19:12.873Z,100518.63
2023-04-29T21:21:40.781Z,100523.09
2023-04-29T21:24:08.838Z,100524.13
2023-04-29T21:26:36.819Z,100518.09
2023-04-29T21:29:05.106Z,100512.00
2023-04-29T21:31:33.097Z,100510.59
2023-04-29T21:34:02.563Z,100514.03
2023-04-29T21:36:32.092Z,100508.66
2023-04-29T21:38:59.994Z,100511.78
2023-04-29T21:41:29.653Z,100512.53
2023-04-29T21:43:59.931Z,100513.72
2023-04-29T21:46:28.690Z,100504.25
2023-04-29T21:48:58.429Z,100511.09
2023-04-29T21:51:28.844Z,100507.69
2023-04-29T21:53:56.923Z,100502.63
2023-04-29T21:56:24.939Z,100503.81
2023-04-29T21:58:53.808Z,100501.88
2023-04-29T22:01:39.859Z,100504.31
2023-04-29T22:04:08.540Z,100498.16
2023-04-29T22:06:38.002Z,100491.44
2023-04-29T22:09:07.310Z,100488.47
2023-04-29T22:11:35.370Z,100492.88
2023-04-29T22:14:03.300Z,100484.53
2023-04-29T22:16:31.257Z,100481.09
2023-04-29T22:18:59.365Z,100485.25
2023-04-29T22:21:27.976Z,100460.47
2023-04-29T22:23:57.293Z,100476.81
2023-04-29T22:26:25.549Z,100460.78
2023-04-29T22:28:53.592Z,100476.09
2023-04-29T22:31:21.553Z,100476.09
2023-04-29T22:33:49.618Z,100474.50
2023-04-29T22:36:17.537Z,100472.66
2023-04-29T22:38:45.498Z,100470.91
2023-04-29T22:41:14.881Z,100477.34
2023-04-29T22:43:42.786Z,100467.53
2023-04-29T22:46:10.792Z,100468.22
2023-04-29T22:48:38.682Z,100465.13
2023-04-29T22:51:06.915Z,100461.78
2023-04-29T22:53:34.806Z,100457.78
2023-04-29T22:56:03.238Z,100457.44
2023-04-29T22:58:33.780Z,100446.72
2023-04-29T23:01:02.200Z,100450.09
2023-04-29T23:03:30.156Z,100452.09
2023-04-29T23:05:59.539Z,100444.50
2023-04-29T23:08:28.064Z,100442.06
2023-04-29T23:10:56.073Z,100437.78
2023-04-29T23:13:24.080Z,100439.16
2023-04-29T23:15:56.796Z,100436.72
2023-04-29T23:18:24.774Z,100442.03
2023-04-29T23:20:53.082Z,100439.16
2023-04-29T23:23:20.998Z,100425.72
2023-04-29T23:25:48.914Z,100435.63
2023-04-29T23:28:17.461Z,100448.25
2023-04-29T23:30:47.375Z,100446.22
2023-04-29T23:33:16.771Z,100443.56
2023-04-29T23:35:49.595Z,100443.69
2023-04-29T23:38:17.633Z,100444.53
2023-04-29T23:40:46.396Z,100439.09
2023-04-29T23:43:15.072Z,100442.22
2023-04-29T23:45:45.136Z,100436.72
2023-04-29T23:48:13.312Z,100441.56
2023-04-29T23:50:42.644Z,100435.38
2023-04-29T23:53:10.575Z,100436.38
2023-04-29T23:55:38.555Z,100438.25
2023-04-29T23:58:06.474Z,100440.34
